Time;durP1;ratioP1;P1;durP2;ratioP2;P2;SDS_P1;SDS_P2;PMS_P1;PMS_P2;Temp;Humidity;BMP_temperature;BMP_pressure;BME280_temperature;BME280_humidity;BME280_pressure;Samples;Min_cycle;Max_cycle;Signal;HPM_P1;HPM_P2
2022/11/15 00:00:59;;;;;;;39.90;30.32;;;;;;;6.10;92.64;99785.68;1709105;82;21108;-77
2022/11/15 00:03:27;;;;;;;42.65;31.42;;;;;;;6.09;92.70;99780.11;1712416;83;21549;-77
2022/11/15 00:05:54;;;;;;;48.85;31.55;;;;;;;6.10;92.71;99778.75;1690117;84;21076;-77
2022/11/15 00:08:21;;;;;;;44.38;31.40;;;;;;;6.10;92.73;99785.68;1750060;81;21823;-77
2022/11/15 00:10:59;;;;;;;46.53;31.07;;;;;;;6.12;92.71;99782.61;1742546;82;20944;-77
2022/11/15 00:13:25;;;;;;;47.95;32.80;;;;;;;6.13;92.71;99783.00;1734888;81;21363;-77
2022/11/15 00:15:52;;;;;;;46.95;33.80;;;;;;;6.13;92.88;99774.77;1746751;81;21009;-77
2022/11/15 00:18:19;;;;;;;42.45;30.95;;;;;;;6.14;92.98;99776.94;1742107;81;20926;-77
2022/11/15 00:20:46;;;;;;;48.58;31.95;;;;;;;6.15;92.93;99770.85;1736181;81;21107;-77
2022/11/15 00:23:12;;;;;;;41.70;29.87;;;;;;;6.15;92.85;99769.11;1744872;81;20916;-77
2022/11/15 00:25:39;;;;;;;41.98;30.65;;;;;;;6.18;92.89;99769.47;1749596;81;21026;-77
2022/11/15 00:28:05;;;;;;;40.17;30.43;;;;;;;6.16;92.74;99764.77;1745098;81;21906;-77
2022/11/15 00:30:32;;;;;;;47.70;32.38;;;;;;;6.15;92.78;99765.67;1746658;81;20948;-77
2022/11/15 00:33:06;;;;;;;43.17;31.62;;;;;;;6.17;92.88;99771.67;1735335;81;21605;-77
2022/11/15 00:35:34;;;;;;;44.88;31.42;;;;;;;6.19;92.85;99772.45;1680922;82;20944;-77
2022/11/15 00:38:02;;;;;;;48.73;34.25;;;;;;;6.20;92.93;99774.17;1747440;80;21532;-77
2022/11/15 00:40:29;;;;;;;45.43;32.35;;;;;;;6.21;92.96;99773.27;1728715;81;21110;-77
2022/11/15 00:42:56;;;;;;;49.73;34.78;;;;;;;6.18;92.85;99762.98;1744939;81;21964;-77
2022/11/15 00:45:24;;;;;;;48.50;32.03;;;;;;;6.19;93.05;99764.67;1743581;81;20898;-77
2022/11/15 00:47:51;;;;;;;43.55;30.85;;;;;;;6.20;93.02;99761.20;1741732;80;21014;-77
2022/11/15 00:50:18;;;;;;;46.18;33.55;;;;;;;6.20;93.02;99756.02;1747206;80;20873;-77
2022/11/15 00:52:45;;;;;;;51.95;33.92;;;;;;;6.21;93.11;99755.95;1744819;81;22264;-77
2022/11/15 00:55:16;;;;;;;45.43;33.05;;;;;;;6.21;93.10;99755.11;1743720;81;20926;-77
2022/11/15 00:57:43;;;;;;;48.80;33.75;;;;;;;6.21;93.00;99748.63;1731073;81;21620;-77
2022/11/15 01:00:11;;;;;;;53.80;34.55;;;;;;;6.17;93.02;99745.74;1731074;81;21484;-77
2022/11/15 01:02:38;;;;;;;52.48;33.63;;;;;;;6.16;93.08;99741.01;1750195;81;20940;-77
2022/11/15 01:05:06;;;;;;;51.85;34.23;;;;;;;6.16;93.28;99738.84;1746788;79;21136;-77
2022/11/15 01:07:32;;;;;;;;;;;;;;;6.19;93.16;99736.16;1739083;81;21395;-77
2022/11/15 01:09:59;;;;;;;53.25;35.28;;;;;;;6.18;93.19;99739.65;1733631;81;20139;-77
2022/11/15 01:12:25;;;;;;;47.40;32.25;;;;;;;6.21;93.18;99734.37;1735729;81;21502;-77
2022/11/15 01:14:52;;;;;;;53.10;33.63;;;;;;;6.24;93.15;99732.98;1725411;81;20969;-77
2022/11/15 01:17:19;;;;;;;45.92;32.67;;;;;;;6.25;92.93;99734.25;1726196;81;21001;-77
2022/11/15 01:19:45;;;;;;;45.97;32.93;;;;;;;6.25;93.08;99728.22;1725397;81;22663;-77
2022/11/15 01:22:12;;;;;;;51.30;33.63;;;;;;;6.26;93.03;99719.53;1745250;81;20907;-77
2022/11/15 01:24:39;;;;;;;54.30;36.63;;;;;;;6.28;93.09;99715.16;1742302;79;20902;-78
2022/11/15 01:27:05;;;;;;;50.83;35.10;;;;;;;6.28;93.07;99709.98;1751905;81;20937;-77
2022/11/15 01:29:32;;;;;;;55.80;35.70;;;;;;;6.27;93.02;99705.66;1737212;80;21405;-77
2022/11/15 01:31:58;;;;;;;46.93;32.53;;;;;;;6.24;92.97;99700.58;1733614;81;20917;-77
2022/11/15 01:34:25;;;;;;;56.42;35.88;;;;;;;6.22;93.03;99706.28;1737934;81;20947;-77
2022/11/15 01:36:52;;;;;;;51.20;34.73;;;;;;;6.20;93.08;99702.88;1720154;81;21442;-77
2022/11/15 01:39:19;;;;;;;52.55;35.17;;;;;;;6.23;93.16;99701.48;1715575;81;20950;-77
2022/11/15 01:41:45;;;;;;;52.97;34.87;;;;;;;6.25;93.23;99696.66;1707587;83;21190;-77
2022/11/15 01:44:48;;;;;;;52.38;35.50;;;;;;;6.27;93.22;99700.48;1702934;84;21473;-77
2022/11/15 01:47:23;;;;;;;51.25;33.92;;;;;;;6.26;93.20;99685.83;1711167;83;21473;-77
2022/11/15 01:50:04;;;;;;;51.50;34.63;;;;;;;6.25;93.16;99689.33;1682639;85;20894;-77
2022/11/15 01:52:34;;;;;;;53.48;35.48;;;;;;;6.26;93.20;99680.64;1677512;84;20954;-77
2022/11/15 01:55:09;;;;;;;52.15;33.95;;;;;;;6.21;93.24;99679.47;1683125;85;21219;-77
2022/11/15 01:57:36;;;;;;;54.42;33.95;;;;;;;6.21;93.25;99672.99;1695829;83;20930;-76
2022/11/15 02:00:06;;;;;;;54.83;35.98;;;;;;;6.21;93.44;99669.55;1697372;83;21088;-77
2022/11/15 02:02:34;;;;;;;45.58;30.45;;;;;;;6.19;93.35;99666.16;1684391;83;20886;-77
2022/11/15 02:05:01;;;;;;;50.17;32.85;;;;;;;6.12;93.49;99665.95;1702871;83;20936;-77
2022/11/15 02:07:30;;;;;;;49.67;33.00;;;;;;;6.12;93.33;99667.25;1705927;83;21484;-77
2022/11/15 02:10:01;;;;;;;48.50;32.05;;;;;;;6.02;93.47;99657.16;1702683;84;20937;-77
2022/11/15 02:12:28;;;;;;;50.52;33.10;;;;;;;5.95;93.51;99650.45;1702807;84;21031;-77
2022/11/15 02:14:56;;;;;;;44.70;30.40;;;;;;;5.91;93.55;99646.23;1705293;83;20893;-77
2022/11/15 02:17:49;;;;;;;42.53;29.37;;;;;;;5.89;93.60;99649.30;1702064;84;21625;-77
2022/11/15 02:20:48;;;;;;;41.37;28.92;;;;;;;5.87;93.68;99642.02;1707050;83;22113;-77
2022/11/15 02:24:03;;;;;;;43.63;28.00;;;;;;;5.84;93.61;99644.70;1638506;85;20980;-77
2022/11/15 02:26:58;;;;;;;44.27;29.35;;;;;;;5.83;93.66;99639.12;1695431;84;20879;-77
2022/11/15 02:29:41;;;;;;;46.40;29.90;;;;;;;5.83;93.72;99635.23;1699955;83;20928;-77
2022/11/15 02:32:22;;;;;;;42.20;29.25;;;;;;;5.83;93.69;99631.35;1661898;84;21025;-77
2022/11/15 02:35:24;;;;;;;42.25;28.62;;;;;;;5.83;93.74;99632.65;1591192;87;21103;-77
2022/11/15 02:38:10;;;;;;;44.10;28.70;;;;;;;5.84;93.86;99643.41;1592689;88;20974;-77
2022/11/15 02:40:54;;;;;;;45.95;27.80;;;;;;;5.83;93.83;99638.67;1596175;86;21006;-77
2022/11/15 02:43:56;;;;;;;47.40;30.27;;;;;;;5.86;94.13;99642.92;1605637;87;20981;-77
2022/11/15 02:49:24;;;;;;;47.53;30.90;;;;;;;5.88;94.01;99630.78;1596783;87;21127;-77
2022/11/15 02:51:52;;;;;;;51.98;31.87;;;;;;;5.91;94.06;99635.87;1608677;87;22011;-77
2022/11/15 02:54:24;;;;;;;48.80;30.52;;;;;;;5.94;94.08;99632.38;1586068;89;20919;-77
2022/11/15 02:56:54;;;;;;;52.25;32.03;;;;;;;5.91;93.98;99625.50;1605222;87;20991;-77
2022/11/15 02:59:38;;;;;;;49.35;33.35;;;;;;;5.91;94.16;99616.44;1597243;87;21053;-77
2022/11/15 03:02:27;;;;;;;54.35;34.85;;;;;;;5.90;94.15;99621.19;1607505;87;21192;-77
2022/11/15 03:05:24;;;;;;;52.45;33.25;;;;;;;5.93;94.22;99620.25;1596488;87;20906;-77
2022/11/15 03:08:15;;;;;;;53.45;33.30;;;;;;;5.94;94.23;99612.48;1606546;87;24779;-76
2022/11/15 03:11:12;;;;;;;53.58;34.20;;;;;;;5.95;94.29;99610.28;1606903;87;21631;-77
2022/11/15 03:13:55;;;;;;;53.05;35.28;;;;;;;5.97;94.28;99602.02;1673242;84;20958;-77
2022/11/15 03:16:43;;;;;;;51.10;34.58;;;;;;;6.03;94.43;99604.42;1580439;88;21176;-77
2022/11/15 03:19:18;;;;;;;50.33;33.08;;;;;;;6.03;94.25;99601.83;1564715;88;22016;-77
2022/11/15 03:21:48;;;;;;;57.65;33.70;;;;;;;6.01;94.32;99595.83;1569353;89;20947;-77
2022/11/15 03:24:16;;;;;;;62.33;36.68;;;;;;;6.01;94.32;99595.83;1582060;88;21035;-77
2022/11/15 03:26:46;;;;;;;56.98;35.35;;;;;;;6.04;94.20;99590.55;1556166;88;21104;-77
2022/11/15 03:29:24;;;;;;;58.87;34.35;;;;;;;6.05;94.09;99591.42;1562186;89;22141;-77
2022/11/15 03:31:56;;;;;;;56.10;34.58;;;;;;;6.04;94.14;99590.55;1596020;87;20942;-77
2022/11/15 03:34:39;;;;;;;54.63;34.13;;;;;;;6.03;94.15;99588.87;1600250;88;20946;-77
2022/11/15 03:37:08;;;;;;;54.33;33.60;;;;;;;6.02;94.05;99588.48;1600064;87;20916;-77
2022/11/15 03:39:35;;;;;;;50.52;34.15;;;;;;;5.98;94.11;99582.97;1600400;87;20916;-77
2022/11/15 03:42:31;;;;;;;49.27;30.80;;;;;;;5.95;94.34;99584.81;1582525;89;21987;-77
2022/11/15 03:45:29;;;;;;;44.18;28.80;;;;;;;5.92;94.26;99585.72;1591885;89;21194;-77
2022/11/15 03:48:13;;;;;;;46.28;27.65;;;;;;;5.85;94.16;99584.20;1586739;89;21086;-77
2022/11/15 03:50:42;;;;;;;39.92;25.65;;;;;;;5.72;94.01;99589.37;1574712;89;20999;-77
2022/11/15 03:53:09;;;;;;;38.08;24.45;;;;;;;5.73;94.16;99588.46;1643282;82;21467;-77
2022/11/15 03:55:35;;;;;;;42.70;26.30;;;;;;;5.69;93.99;99589.46;1726443;81;21953;-77
2022/11/15 03:58:02;;;;;;;38.03;25.77;;;;;;;5.67;94.05;99597.72;1711189;83;20956;-76
2022/11/15 04:00:29;;;;;;;36.33;22.85;;;;;;;5.60;94.20;99584.95;1727852;81;20889;-76
2022/11/15 04:02:56;;;;;;;42.00;26.40;;;;;;;5.65;94.11;99589.13;1731891;82;21355;-77
2022/11/15 04:05:23;;;;;;;43.87;26.73;;;;;;;5.63;94.11;99585.73;1736180;82;21051;-77
2022/11/15 04:07:49;;;;;;;43.25;27.48;;;;;;;5.64;94.08;99592.62;1738560;81;21197;-77
2022/11/15 04:10:16;;;;;;;44.77;26.68;;;;;;;5.64;94.10;99589.58;1741598;81;20902;-77
2022/11/15 04:12:47;;;;;;;48.97;28.50;;;;;;;5.61;94.14;99587.93;1715361;82;20965;-77
2022/11/15 04:15:18;;;;;;;43.98;29.23;;;;;;;5.63;93.98;99583.14;1734294;82;21555;-77
2022/11/15 04:17:51;;;;;;;44.73;26.15;;;;;;;5.63;94.05;99583.14;1710834;82;20982;-77
2022/11/15 04:26:02;;;;;;;38.83;24.00;;;;;;;5.56;94.28;99574.26;1723951;83;21471;-77
2022/11/15 04:28:29;;;;;;;39.63;23.65;;;;;;;5.55;94.39;99581.64;1729980;82;20889;-77
2022/11/15 04:30:55;;;;;;;39.58;24.18;;;;;;;5.46;94.21;99575.44;1742312;81;20892;-78
2022/11/15 04:33:23;;;;;;;35.23;24.10;;;;;;;5.50;94.28;99570.56;1726168;82;21048;-78
2022/11/15 04:38:36;;;;;;;37.55;23.98;;;;;;;5.44;94.31;99573.33;1727962;82;20929;-77
2022/11/15 04:41:02;;;;;;;;;;;;;;;5.36;94.23;99575.28;1723098;82;20957;-77
2022/11/15 04:43:29;;;;;;;35.08;22.30;;;;;;;5.45;94.34;99577.61;1723727;83;20085;-77
2022/11/15 04:45:56;;;;;;;39.23;23.45;;;;;;;5.42;94.37;99573.81;1725315;83;21101;-77
2022/11/15 04:48:23;;;;;;;39.70;24.47;;;;;;;5.43;94.48;99579.38;1716536;81;20945;-77
2022/11/15 04:50:49;;;;;;;41.90;23.45;;;;;;;5.43;94.42;99576.79;1673846;84;21728;-77
2022/11/15 04:53:16;;;;;;;39.25;24.95;;;;;;;5.45;94.28;99569.84;1725965;81;20958;-78
2022/11/15 04:55:46;;;;;;;43.83;25.27;;;;;;;5.41;94.47;99568.70;1707884;82;20998;-77
2022/11/15 04:58:13;;;;;;;40.33;24.30;;;;;;;5.45;94.39;99565.11;1711357;81;22178;-77
2022/11/15 05:00:39;;;;;;;42.10;24.30;;;;;;;5.40;94.60;99570.41;1722173;83;20879;-77
2022/11/15 05:05:50;;;;;;;34.90;22.45;;;;;;;5.49;94.22;99567.58;1715212;82;21013;-77
2022/11/15 05:08:17;;;;;;;41.70;24.63;;;;;;;5.40;94.59;99566.53;1721297;83;20946;-77
2022/11/15 05:10:44;;;;;;;44.20;26.23;;;;;;;5.52;94.22;99562.30;1724736;83;21206;-78
2022/11/15 05:13:10;;;;;;;35.75;24.43;;;;;;;5.48;94.24;99556.80;1720484;82;20918;-77
2022/11/15 05:15:37;;;;;;;36.93;24.60;;;;;;;5.45;94.23;99567.25;1716096;83;20958;-77
2022/11/15 05:18:03;;;;;;;43.43;25.13;;;;;;;5.43;94.33;99566.44;1717192;83;21069;-77
2022/11/15 05:20:30;;;;;;;38.28;24.18;;;;;;;5.49;94.21;99559.81;1700767;83;20944;-77
2022/11/15 05:22:57;;;;;;;40.23;24.70;;;;;;;5.53;93.86;99562.70;1703593;83;21098;-77
2022/11/15 05:25:24;;;;;;;43.57;25.33;;;;;;;5.55;93.90;99562.67;1720807;83;20980;-77
2022/11/15 05:27:50;;;;;;;40.00;25.50;;;;;;;5.58;93.99;99560.83;1710406;82;21016;-77
2022/11/15 05:30:17;;;;;;;37.70;23.65;;;;;;;5.61;93.92;99571.09;1727805;81;21475;-77
2022/11/15 05:32:44;;;;;;;42.20;25.10;;;;;;;5.59;93.76;99568.98;1724108;81;20938;-77
2022/11/15 05:35:16;;;;;;;41.58;24.85;;;;;;;5.59;93.78;99575.46;1721819;81;21056;-77
2022/11/15 05:37:43;;;;;;;42.48;24.77;;;;;;;5.57;93.70;99568.63;1712297;81;21012;-78
2022/11/15 05:40:10;;;;;;;42.53;25.30;;;;;;;5.60;94.17;99574.59;1714740;81;21061;-77
2022/11/15 05:42:37;;;;;;;45.43;25.82;;;;;;;5.61;93.96;99563.32;1704505;82;20961;-77
2022/11/15 05:45:06;;;;;;;43.60;23.65;;;;;;;5.59;94.07;99563.80;1706136;82;20983;-77
2022/11/15 05:47:36;;;;;;;45.43;25.65;;;;;;;5.51;94.04;99563.18;1682207;84;21214;-77
2022/11/15 05:50:03;;;;;;;40.35;25.80;;;;;;;5.47;94.56;99565.47;1684510;82;20919;-78
2022/11/15 05:52:34;;;;;;;45.43;25.65;;;;;;;5.49;94.43;99568.88;1686452;82;20890;-77
2022/11/15 05:55:02;;;;;;;42.50;25.10;;;;;;;5.51;94.52;99569.66;1692945;82;20930;-77
2022/11/15 05:57:28;;;;;;;36.30;22.52;;;;;;;5.54;94.51;99570.86;1678028;82;21020;-77
2022/11/15 05:59:55;;;;;;;32.58;22.17;;;;;;;5.52;94.61;99566.19;1694646;81;20968;-77
2022/11/15 06:02:22;;;;;;;36.73;24.27;;;;;;;5.50;94.46;99562.79;1696492;81;20863;-77
2022/11/15 06:04:49;;;;;;;38.73;23.52;;;;;;;5.51;94.60;99570.95;1700874;82;20921;-78
2022/11/15 06:07:15;;;;;;;42.60;24.70;;;;;;;5.47;94.97;99565.47;1714327;82;21471;-78
2022/11/15 06:09:42;;;;;;;43.55;25.82;;;;;;;5.60;94.81;99561.64;1722166;82;20884;-77
2022/11/15 06:12:09;;;;;;;42.08;25.25;;;;;;;5.59;94.64;99562.52;1698331;81;21436;-77
2022/11/15 06:14:36;;;;;;;37.95;25.35;;;;;;;5.65;94.43;99561.94;1699713;82;20986;-77
2022/11/15 06:17:02;;;;;;;42.08;24.57;;;;;;;5.60;94.63;99559.05;1678377;83;20902;-78
2022/11/15 06:19:32;;;;;;;41.30;24.63;;;;;;;5.69;94.61;99568.28;1705674;82;21036;-77
2022/11/15 06:21:57;;;;;;;43.13;25.80;;;;;;;5.71;94.48;99561.75;1687412;83;20919;-77
2022/11/15 06:24:24;;;;;;;39.73;23.73;;;;;;;5.69;94.44;99562.27;1689606;82;21041;-77
2022/11/15 06:26:51;;;;;;;39.43;24.63;;;;;;;5.72;94.68;99567.34;1686920;81;20899;-77
2022/11/15 06:29:17;;;;;;;36.63;23.07;;;;;;;5.73;94.46;99572.47;1705917;82;20958;-78
2022/11/15 06:31:44;;;;;;;37.10;23.33;;;;;;;5.70;94.37;99567.37;1717523;81;20884;-76
2022/11/15 06:34:11;;;;;;;43.05;24.15;;;;;;;5.72;94.48;99569.94;1717072;81;20911;-78
2022/11/15 06:36:38;;;;;;;38.17;24.17;;;;;;;5.71;94.52;99569.06;1712265;82;21126;-77
2022/11/15 06:39:05;;;;;;;36.25;23.27;;;;;;;5.70;94.37;99558.77;1695935;81;20973;-77
2022/11/15 06:41:35;;;;;;;47.48;24.65;;;;;;;5.71;94.37;99560.45;1716052;82;20920;-77
2022/11/15 06:44:02;;;;;;;39.67;24.25;;;;;;;5.61;94.36;99558.14;1717553;82;20867;-77
2022/11/15 06:46:29;;;;;;;36.28;23.65;;;;;;;5.70;94.40;99570.42;1701591;82;20912;-77
2022/11/15 06:48:56;;;;;;;47.40;24.97;;;;;;;5.71;94.74;99564.34;1711058;82;21042;-77
2022/11/15 06:51:22;;;;;;;45.15;24.30;;;;;;;5.74;94.81;99560.35;1683747;84;22031;-77
2022/11/15 06:53:49;;;;;;;41.23;25.15;;;;;;;5.77;94.85;99570.62;1676544;84;20981;-77
2022/11/15 06:56:15;;;;;;;41.48;24.50;;;;;;;5.80;94.81;99564.08;1701194;82;21145;-75
2022/11/15 06:58:42;;;;;;;36.63;24.63;;;;;;;5.82;94.81;99560.97;1699788;82;20929;-78
2022/11/15 07:01:12;;;;;;;41.08;24.15;;;;;;;5.81;94.71;99564.47;1701366;82;21119;-77
2022/11/15 07:03:41;;;;;;;40.52;24.15;;;;;;;5.79;94.70;99565.80;1702826;82;20918;-76
2022/11/15 07:06:09;;;;;;;39.78;23.90;;;;;;;5.82;94.78;99564.86;1696288;84;21487;-76
2022/11/15 07:08:36;;;;;;;37.45;24.98;;;;;;;5.84;94.88;99564.38;1679072;83;20958;-77
2022/11/15 07:11:20;;;;;;;;;;;;;;;;;;;;;
2022/11/15 07:13:40;;;;;;;36.08;22.20;;;;;;;5.83;94.68;99563.53;1708661;82;20896;-77
2022/11/15 07:16:10;;;;;;;33.33;22.67;;;;;;;5.84;94.67;99561.78;1698753;82;20906;-78
2022/11/15 07:18:39;;;;;;;35.15;22.25;;;;;;;5.83;94.70;99560.09;1706667;83;20922;-78
2022/11/15 07:21:09;;;;;;;34.85;22.70;;;;;;;5.85;94.77;99567.36;1702714;82;20894;-78
2022/11/15 07:23:39;;;;;;;36.20;24.20;;;;;;;5.86;94.65;99565.19;1713783;82;21408;-78
2022/11/15 07:26:07;;;;;;;39.70;24.75;;;;;;;5.86;94.63;99572.96;1707498;82;21056;-78
2022/11/15 07:28:34;;;;;;;40.85;24.82;;;;;;;5.89;94.85;99570.27;1709557;82;20938;-78
2022/11/15 07:31:08;;;;;;;36.45;22.73;;;;;;;5.92;94.79;99558.97;1711512;83;20916;-78
2022/11/15 07:33:35;;;;;;;34.18;22.10;;;;;;;5.93;94.75;99558.94;1712163;82;20977;-78
2022/11/15 07:36:06;;;;;;;38.35;23.73;;;;;;;5.92;94.61;99570.17;1716478;81;20979;-77
2022/11/15 07:38:34;;;;;;;35.25;22.62;;;;;;;5.94;94.76;99575.36;1669991;84;21873;-77
2022/11/15 07:41:04;;;;;;;38.53;22.87;;;;;;;5.96;94.76;99570.95;1709913;81;20896;-75
2022/11/15 07:43:32;;;;;;;38.83;22.95;;;;;;;5.97;94.74;99570.08;1709717;82;21487;-76
2022/11/15 07:45:59;;;;;;;36.55;22.13;;;;;;;5.97;94.67;99568.33;1722926;81;21509;-77
2022/11/15 07:48:26;;;;;;;45.33;27.20;;;;;;;5.98;94.66;99569.17;1702078;82;20987;-79
2022/11/15 07:50:53;;;;;;;40.10;24.50;;;;;;;6.01;94.85;99558.25;1686296;83;21075;-74
2022/11/15 07:53:19;;;;;;;33.10;23.12;;;;;;;6.03;94.77;99562.95;1736016;81;21096;-77
2022/11/15 07:55:46;;;;;;;36.47;22.80;;;;;;;6.01;94.50;99568.62;1717152;81;20868;-77
2022/11/15 07:58:18;;;;;;;39.60;24.60;;;;;;;6.07;94.85;99565.44;1713169;81;20965;-75
2022/11/15 08:00:44;;;;;;;35.08;23.07;;;;;;;6.14;95.17;99566.95;1707996;81;21182;-76
2022/11/15 08:03:14;;;;;;;35.17;23.57;;;;;;;6.16;94.88;99571.63;1722280;81;21412;-76
2022/11/15 08:05:44;;;;;;;88.20;24.43;;;;;;;6.19;95.28;99574.12;1736649;81;20902;-77
2022/11/15 08:08:11;;;;;;;231.17;36.35;;;;;;;6.16;95.03;99570.33;1709985;82;20927;-76
2022/11/15 08:10:38;;;;;;;;;;;;;;;6.20;95.35;99565.01;1718837;81;20974;-75
2022/11/15 08:13:09;;;;;;;40.03;24.18;;;;;;;6.37;95.82;99573.54;1710926;81;20137;-76
2022/11/15 08:15:36;;;;;;;123.33;28.05;;;;;;;6.35;95.30;99571.44;1698844;83;21050;-76
2022/11/15 08:18:08;;;;;;;;;;;;;;;6.38;95.92;99567.45;1719959;81;21025;-77
2022/11/15 08:20:35;;;;;;;37.48;21.30;;;;;;;6.39;95.16;99576.94;1720591;81;20136;-75
2022/11/15 08:23:14;;;;;;;77.00;25.05;;;;;;;6.34;94.67;99582.72;1705999;81;21474;-77
2022/11/15 08:25:51;;;;;;;74.45;27.87;;;;;;;6.25;94.64;99577.84;1725470;81;21491;-75
2022/11/15 08:28:18;;;;;;;40.80;26.10;;;;;;;6.30;95.10;99579.80;1723848;81;21020;-76
2022/11/15 08:30:45;;;;;;;59.93;37.30;;;;;;;6.30;94.79;99579.80;1723415;81;21545;-77
2022/11/15 08:33:14;;;;;;;80.62;36.05;;;;;;;6.31;95.08;99577.63;1721998;81;20950;-76
2022/11/15 08:35:42;;;;;;;232.95;40.00;;;;;;;6.43;95.70;99582.87;1726036;80;20993;-76
2022/11/15 08:38:09;;;;;;;52.78;25.48;;;;;;;6.41;95.23;99576.45;1734667;81;20947;-77
2022/11/15 08:40:37;;;;;;;222.73;34.80;;;;;;;6.57;95.86;99568.99;1736975;80;21041;-77
2022/11/15 08:43:04;;;;;;;;;;;;;;;6.54;95.18;99566.95;1735935;81;21513;-75
2022/11/15 08:45:31;;;;;;;52.45;24.82;;;;;;;6.55;95.06;99567.34;1730888;82;20094;-75
2022/11/15 08:47:59;;;;;;;;;;;;;;;6.50;94.87;99567.52;1734110;81;20976;-75
2022/11/15 08:50:26;;;;;;;33.83;22.13;;;;;;;6.45;94.86;99558.58;1732783;81;20153;-77
2022/11/15 08:52:52;;;;;;;30.60;20.50;;;;;;;6.41;94.86;99560.89;1738125;81;21304;-76
2022/11/15 08:55:19;;;;;;;31.60;20.62;;;;;;;6.41;94.91;99564.78;1735569;81;21418;-76
2022/11/15 08:57:46;;;;;;;35.00;20.10;;;;;;;6.39;94.90;99564.43;1737088;82;20914;-77
2022/11/15 09:00:14;;;;;;;286.57;42.98;;;;;;;6.44;95.19;99565.97;1731930;81;21500;-77
2022/11/15 09:02:41;;;;;;;360.75;56.85;;;;;;;6.44;95.01;99565.97;1724004;81;20955;-78
2022/11/15 09:05:08;;;;;;;76.40;28.02;;;;;;;6.60;96.34;99562.86;1733943;82;20912;-76
2022/11/15 09:07:35;;;;;;;37.03;22.07;;;;;;;6.73;95.75;99560.25;1684212;83;20869;-75
2022/11/15 09:10:02;;;;;;;34.67;20.27;;;;;;;6.54;94.40;99565.66;1712091;83;21453;-75
2022/11/15 09:12:29;;;;;;;28.20;19.60;;;;;;;6.35;94.23;99563.66;1727418;81;20879;-76
2022/11/15 09:14:55;;;;;;;28.70;18.03;;;;;;;6.21;94.01;99574.92;1725788;81;20953;-76
2022/11/15 09:17:23;;;;;;;90.00;24.27;;;;;;;6.14;94.34;99576.03;1731513;81;21958;-75
2022/11/15 09:19:51;;;;;;;507.75;65.57;;;;;;;6.13;94.60;99567.84;1729716;81;21473;-74
2022/11/15 09:22:17;;;;;;;106.15;31.48;;;;;;;6.14;94.78;99577.33;1726927;81;20914;-75
2022/11/15 09:24:44;;;;;;;42.35;22.75;;;;;;;6.24;95.48;99570.94;1730041;81;20939;-73
2022/11/15 09:27:15;;;;;;;51.35;21.85;;;;;;;6.28;95.14;99572.55;1726134;81;20957;-78
2022/11/15 09:29:42;;;;;;;75.87;24.40;;;;;;;6.42;95.53;99563.03;1696669;81;21498;-83
2022/11/15 09:32:09;;;;;;;45.40;23.03;;;;;;;6.48;95.47;99562.36;1731669;81;20965;-77
2022/11/15 09:34:36;;;;;;;;;;;;;;;6.47;95.08;99558.09;1740296;81;21477;-78
2022/11/15 09:37:02;;;;;;;31.55;20.60;;;;;;;6.45;94.86;99561.63;1750183;81;20094;-76
2022/11/15 09:39:29;;;;;;;35.40;22.13;;;;;;;6.42;94.89;99559.98;1728307;81;20997;-70
2022/11/15 09:42:16;;;;;;;38.75;22.55;;;;;;;6.41;94.81;99568.67;1722275;82;21236;-70
2022/11/15 09:44:57;;;;;;;34.75;21.80;;;;;;;6.36;94.65;99560.19;1709890;81;20963;-72
2022/11/15 09:47:44;;;;;;;35.45;21.60;;;;;;;6.39;95.09;99560.08;1710868;81;20973;-71
2022/11/15 09:50:16;;;;;;;;;;;;;;;6.41;94.88;99558.72;1671640;84;20968;-71
2022/11/15 09:52:45;;;;;;;91.35;25.32;;;;;;;6.40;94.84;99559.63;1673535;84;20101;-73
2022/11/15 09:55:21;;;;;;;184.80;27.58;;;;;;;6.62;96.03;99561.06;1658101;84;21026;-71
2022/11/15 09:57:55;;;;;;;33.92;19.12;;;;;;;6.86;96.58;99557.64;1683286;84;20935;-69
2022/11/15 10:00:30;;;;;;;34.18;17.57;;;;;;;6.90;95.42;99548.84;1637373;85;21173;-68
2022/11/15 10:03:16;;;;;;;31.73;19.07;;;;;;;7.00;95.72;99533.80;1632468;85;20973;-68
2022/11/15 10:05:49;;;;;;;39.03;20.08;;;;;;;6.94;94.96;99534.83;1671831;84;20938;-69
2022/11/15 10:08:30;;;;;;;233.38;33.60;;;;;;;6.91;94.79;99540.14;1648067;84;21713;-67
2022/11/15 10:11:01;;;;;;;31.55;16.57;;;;;;;7.09;96.19;99531.32;1659373;84;20922;-68
2022/11/15 10:13:35;;;;;;;31.65;17.90;;;;;;;7.22;95.60;99528.66;1669613;84;20957;-68
2022/11/15 10:16:30;;;;;;;20.68;14.28;;;;;;;6.99;93.92;99526.05;1648628;85;20984;-70
2022/11/15 10:19:10;;;;;;;28.27;17.07;;;;;;;6.70;93.46;99535.71;1659974;85;21017;-67
2022/11/15 10:22:06;;;;;;;30.37;16.95;;;;;;;6.48;93.80;99536.42;1620709;87;21179;-71
2022/11/15 10:24:40;;;;;;;28.40;17.37;;;;;;;6.36;94.10;99534.25;1620062;86;21021;-70
2022/11/15 10:27:14;;;;;;;26.12;16.73;;;;;;;6.16;93.93;99524.96;1631936;85;20939;-69
2022/11/15 10:29:48;;;;;;;26.97;17.90;;;;;;;6.05;94.17;99521.45;1709887;82;20894;-70
2022/11/15 10:32:19;;;;;;;22.95;16.15;;;;;;;5.94;94.26;99526.96;1705486;82;20969;-69
2022/11/15 10:34:47;;;;;;;25.82;17.25;;;;;;;5.79;94.43;99522.20;1697061;83;21096;-70
2022/11/15 10:37:14;;;;;;;26.45;16.60;;;;;;;5.73;94.64;99523.70;1705519;81;20903;-70
2022/11/15 10:39:41;;;;;;;29.67;17.97;;;;;;;5.74;94.85;99524.09;1710289;83;20961;-71
2022/11/15 10:42:25;;;;;;;26.75;17.50;;;;;;;5.77;95.01;99516.22;1713079;82;21674;-73
2022/11/15 10:44:52;;;;;;;25.92;17.50;;;;;;;5.78;95.02;99511.45;1731358;81;20997;-74
2022/11/15 10:47:30;;;;;;;26.25;17.98;;;;;;;5.85;95.13;99522.01;1730534;81;22114;-77
2022/11/15 10:50:29;;;;;;;25.80;18.12;;;;;;;5.85;94.94;99524.60;1715755;81;20885;-79
2022/11/15 10:52:59;;;;;;;30.82;18.42;;;;;;;5.82;94.75;99527.29;1705958;83;20875;-71
2022/11/15 10:55:33;;;;;;;39.55;20.48;;;;;;;5.74;94.76;99532.73;1719685;81;20985;-76
2022/11/15 10:58:07;;;;;;;31.68;19.40;;;;;;;5.74;95.01;99531.86;1720083;81;21007;-72
2022/11/15 11:00:41;;;;;;;30.72;19.35;;;;;;;5.77;94.94;99536.94;1715312;81;21058;-71
2022/11/15 11:03:39;;;;;;;31.57;19.95;;;;;;;5.81;95.12;99528.20;1703706;81;20956;-72
2022/11/15 11:06:17;;;;;;;29.87;18.52;;;;;;;5.83;95.12;99534.19;1715366;82;20940;-71
2022/11/15 11:08:58;;;;;;;35.55;19.75;;;;;;;5.87;95.13;99530.59;1710389;82;20985;-73
2022/11/15 11:11:46;;;;;;;29.60;19.42;;;;;;;5.83;94.97;99529.01;1666582;85;20966;-75
2022/11/15 11:14:30;;;;;;;32.35;18.70;;;;;;;5.85;95.02;99524.60;1691681;84;21047;-73
2022/11/15 11:17:13;;;;;;;31.40;20.27;;;;;;;5.83;94.97;99521.23;1724720;82;20970;-71
2022/11/15 11:20:14;;;;;;;33.88;20.08;;;;;;;5.84;95.22;99515.14;1720298;81;20916;-81
2022/11/15 11:23:04;;;;;;;35.60;21.62;;;;;;;5.91;95.35;99515.79;1708018;83;20957;-75
2022/11/15 11:25:36;;;;;;;43.70;22.27;;;;;;;5.90;95.36;99518.83;1699011;83;20998;-88
2022/11/15 11:28:13;;;;;;;31.75;21.12;;;;;;;5.88;95.20;99514.17;1701378;82;21220;-87
2022/11/15 11:31:16;;;;;;;37.88;20.68;;;;;;;5.89;95.35;99510.67;1674790;84;21052;-81
2022/11/15 11:34:16;;;;;;;32.05;20.68;;;;;;;5.94;95.61;99508.82;1695838;84;20919;-73
2022/11/15 11:37:10;;;;;;;30.75;21.17;;;;;;;6.04;95.64;99508.91;1678863;85;21641;-73
2022/11/15 11:40:05;;;;;;;30.75;20.75;;;;;;;6.04;95.37;99499.84;1714805;82;20995;-73
2022/11/15 11:43:06;;;;;;;34.55;21.35;;;;;;;6.03;95.28;99499.45;1679201;83;21073;-72
2022/11/15 11:45:38;;;;;;;34.25;21.90;;;;;;;6.13;95.64;99484.88;1670385;83;20963;-73
2022/11/15 11:48:27;;;;;;;36.55;22.45;;;;;;;6.24;95.64;99491.86;1661707;85;20972;-73
2022/11/15 11:50:59;;;;;;;41.68;24.10;;;;;;;6.32;95.71;99483.37;1662972;83;20985;-73
2022/11/15 11:53:39;;;;;;;36.10;21.97;;;;;;;6.47;95.89;99479.44;1673248;82;20972;-72
2022/11/15 11:56:14;;;;;;;41.02;22.60;;;;;;;6.56;95.67;99483.00;1662370;83;21051;-73
2022/11/15 11:58:44;;;;;;;40.03;23.27;;;;;;;6.57;95.37;99477.36;1671967;83;20945;-73
2022/11/15 12:01:29;;;;;;;38.60;23.38;;;;;;;6.61;95.48;99481.52;1739437;81;20918;-72
2022/11/15 12:04:21;;;;;;;36.70;23.40;;;;;;;6.59;95.13;99475.11;1744032;81;21060;-72
2022/11/15 12:07:06;;;;;;;33.95;22.65;;;;;;;6.62;95.59;99475.45;1739352;81;21474;-72